createdAt,value
2022-12-08T00:01:13.491Z,1.50
2022-12-08T00:04:15.141Z,1.50
2022-12-08T00:07:36.602Z,1.55
2022-12-08T00:10:48.815Z,1.60
2022-12-08T00:13:51.482Z,1.64
2022-12-08T00:16:53.746Z,1.66
2022-12-08T00:19:55.438Z,1.68
2022-12-08T00:22:56.940Z,1.69
2022-12-08T00:26:03.268Z,1.68
2022-12-08T00:29:05.305Z,1.65
2022-12-08T00:32:07.140Z,1.62
2022-12-08T00:35:09.188Z,1.59
2022-12-08T00:38:11.125Z,1.57
2022-12-08T00:41:15.506Z,1.58
2022-12-08T00:44:21.124Z,1.57
2022-12-08T00:47:24.990Z,1.55
2022-12-08T00:50:26.868Z,1.52
2022-12-08T00:53:28.470Z,1.51
2022-12-08T00:56:30.214Z,1.50
2022-12-08T00:59:31.815Z,1.50
2022-12-08T01:02:34.508Z,1.52
2022-12-08T01:05:36.310Z,1.52
2022-12-08T01:08:38.764Z,1.54
2022-12-08T01:11:40.453Z,1.51
2022-12-08T01:14:42.068Z,1.46
2022-12-08T01:17:43.759Z,1.40
2022-12-08T01:20:45.395Z,1.33
2022-12-08T01:23:47.025Z,1.30
2022-12-08T01:26:51.525Z,1.26
2022-12-08T01:29:53.079Z,1.24
2022-12-08T01:32:54.676Z,1.25
2022-12-08T01:35:56.455Z,1.24
2022-12-08T01:39:00.512Z,1.24
2022-12-08T01:42:02.127Z,1.22
2022-12-08T01:45:28.865Z,1.20
2022-12-08T01:48:30.583Z,1.20
2022-12-08T01:51:33.093Z,1.18
2022-12-08T01:54:38.512Z,1.13
2022-12-08T01:57:44.920Z,1.09
2022-12-08T02:00:46.611Z,1.06
2022-12-08T02:03:50.300Z,1.03
2022-12-08T02:06:52.575Z,1.00
2022-12-08T02:09:54.880Z,0.96
2022-12-08T02:12:58.506Z,0.92
2022-12-08T02:16:27.615Z,0.89
2022-12-08T02:20:00.859Z,0.84
2022-12-08T02:23:14.870Z,0.82
2022-12-08T02:26:42.801Z,0.78
2022-12-08T02:30:20.632Z,0.77
2022-12-08T02:33:49.204Z,0.78
2022-12-08T02:37:16.187Z,0.72
2022-12-08T02:40:33.293Z,0.67
2022-12-08T02:43:55.569Z,0.63
2022-12-08T02:47:00.396Z,0.60
2022-12-08T02:50:02.267Z,0.54
2022-12-08T02:56:25.902Z,0.40
2022-12-08T02:59:33.581Z,0.29
2022-12-08T03:03:09.976Z,0.21
2022-12-08T03:06:31.750Z,0.09
2022-12-08T03:09:45.694Z,-0.02
2022-12-08T03:13:07.925Z,-0.13
2022-12-08T03:16:11.505Z,-0.14
2022-12-08T03:19:18.595Z,-0.10
2022-12-08T03:22:24.051Z,-0.14
2022-12-08T03:25:30.892Z,-0.21
2022-12-08T03:28:32.722Z,-0.25
2022-12-08T03:31:34.835Z,-0.26
2022-12-08T03:34:37.236Z,-0.24
2022-12-08T03:37:40.497Z,-0.26
2022-12-08T03:40:43.077Z,-0.35
2022-12-08T03:43:50.075Z,-0.42
2022-12-08T03:46:51.805Z,-0.46
2022-12-08T03:49:53.595Z,-0.46
2022-12-08T03:52:55.357Z,-0.46
2022-12-08T03:55:57.094Z,-0.44
2022-12-08T03:58:59.227Z,-0.36
2022-12-08T04:02:01.101Z,-0.35
2022-12-08T04:05:07.088Z,-0.33
2022-12-08T04:08:08.854Z,-0.33
2022-12-08T04:11:11.300Z,-0.33
2022-12-08T04:14:13.061Z,-0.30
2022-12-08T04:17:14.988Z,-0.27
2022-12-08T04:20:16.686Z,-0.26
2022-12-08T04:23:18.587Z,-0.26
2022-12-08T04:26:20.186Z,-0.25
2022-12-08T04:29:21.898Z,-0.25
2022-12-08T04:32:23.490Z,-0.26
2022-12-08T04:35:25.809Z,-0.29
2022-12-08T04:38:27.606Z,-0.30
2022-12-08T04:41:29.155Z,-0.28
2022-12-08T04:44:31.036Z,-0.31
2022-12-08T04:47:32.633Z,-0.41
2022-12-08T04:50:34.341Z,-0.70
2022-12-08T04:53:35.900Z,-0.89
2022-12-08T04:56:37.649Z,-0.86
2022-12-08T04:59:39.285Z,-0.87
2022-12-08T05:02:40.998Z,-1.06
2022-12-08T05:05:43.508Z,-1.28
2022-12-08T05:08:45.212Z,-1.47
2022-12-08T05:11:49.075Z,-1.51
2022-12-08T05:14:51.226Z,-1.51
2022-12-08T05:17:53.197Z,-1.48
2022-12-08T05:20:54.835Z,-1.43
2022-12-08T05:23:56.504Z,-1.36
2022-12-08T05:26:58.139Z,-1.33
2022-12-08T05:30:00.057Z,-1.23
2022-12-08T05:33:01.868Z,-1.15
2022-12-08T05:36:03.791Z,-1.09
2022-12-08T05:39:05.764Z,-0.96
2022-12-08T05:42:07.412Z,-0.90
2022-12-08T05:45:09.812Z,-0.83
2022-12-08T05:48:11.511Z,-0.77
2022-12-08T05:51:20.043Z,-0.61
2022-12-08T05:54:21.698Z,-0.51
2022-12-08T05:57:23.360Z,-0.44
2022-12-08T06:00:25.117Z,-0.35
2022-12-08T06:03:26.827Z,-0.31
2022-12-08T06:06:29.826Z,-0.30
2022-12-08T06:09:31.572Z,-0.23
2022-12-08T06:12:33.179Z,-0.20
2022-12-08T06:15:36.248Z,-0.40
2022-12-08T06:18:37.923Z,-0.63
2022-12-08T06:21:39.758Z,-0.75
2022-12-08T06:24:41.440Z,-0.85
2022-12-08T06:27:43.061Z,-0.93
2022-12-08T06:30:45.020Z,-0.98
2022-12-08T06:33:47.414Z,-0.95
2022-12-08T06:36:49.317Z,-0.65
2022-12-08T06:39:51.887Z,-0.26
2022-12-08T06:42:53.457Z,-0.09
2022-12-08T06:45:55.563Z,-0.07
2022-12-08T06:48:58.352Z,-0.05
2022-12-08T06:52:00.092Z,-0.01
2022-12-08T06:55:01.798Z,0.02
2022-12-08T06:58:03.486Z,0.04
2022-12-08T07:01:10.389Z,0.06
2022-12-08T07:04:12.140Z,0.07
2022-12-08T07:07:13.737Z,0.09
2022-12-08T07:10:15.370Z,0.10
2022-12-08T07:13:17.022Z,0.11
2022-12-08T07:16:18.804Z,0.13
2022-12-08T07:19:21.409Z,0.18
2022-12-08T07:22:23.015Z,0.23
2022-12-08T07:25:24.669Z,0.28
2022-12-08T07:28:26.328Z,0.31
2022-12-08T07:31:29.041Z,0.34
2022-12-08T07:34:30.780Z,0.35
2022-12-08T07:37:35.565Z,0.37
2022-12-08T07:40:39.156Z,0.40
2022-12-08T07:43:41.724Z,0.45
2022-12-08T07:46:43.469Z,0.51
2022-12-08T07:49:45.082Z,0.58
2022-12-08T07:52:46.704Z,0.64
2022-12-08T07:55:48.324Z,0.70
2022-12-08T07:58:50.190Z,0.71
2022-12-08T08:02:13.192Z,0.70
2022-12-08T08:05:13.580Z,0.68
2022-12-08T08:08:15.342Z,0.63
2022-12-08T08:11:21.360Z,0.58
2022-12-08T08:14:23.452Z,0.51
2022-12-08T08:17:25.224Z,0.50
2022-12-08T08:20:27.081Z,0.48
2022-12-08T08:23:28.694Z,0.49
2022-12-08T08:26:30.387Z,0.56
2022-12-08T08:29:32.152Z,0.66
2022-12-08T08:32:34.313Z,0.77
2022-12-08T08:35:36.055Z,0.92
2022-12-08T08:38:40.262Z,1.35
2022-12-08T08:41:41.951Z,2.01
2022-12-08T08:44:43.565Z,2.37
2022-12-08T08:47:45.330Z,2.57
2022-12-08T08:50:46.865Z,2.73
2022-12-08T08:53:48.572Z,2.93
2022-12-08T08:56:50.120Z,3.13
2022-12-08T08:59:51.760Z,3.26
2022-12-08T09:02:53.469Z,3.31
2022-12-08T09:05:55.604Z,3.35
2022-12-08T09:08:57.337Z,3.35
2022-12-08T09:11:58.945Z,3.38
2022-12-08T09:15:00.552Z,3.49
2022-12-08T09:18:02.455Z,3.54
2022-12-08T09:21:09.298Z,3.56
2022-12-08T09:24:15.947Z,3.62
2022-12-08T09:27:17.712Z,3.76
2022-12-08T09:30:19.378Z,3.79
2022-12-08T09:33:21.133Z,3.81
2022-12-08T09:36:23.079Z,3.84
2022-12-08T09:39:24.773Z,3.93
2022-12-08T09:42:58.256Z,4.00
2022-12-08T09:46:01.113Z,4.08
2022-12-08T09:49:03.854Z,4.16
2022-12-08T09:52:06.364Z,4.24
2022-12-08T09:55:24.802Z,4.33
2022-12-08T09:58:41.623Z,4.38
2022-12-08T10:01:43.406Z,4.31
2022-12-08T10:04:45.179Z,4.21
2022-12-08T10:08:04.102Z,4.08
2022-12-08T10:11:12.486Z,4.00
2022-12-08T10:14:29.339Z,3.96
2022-12-08T10:17:35.017Z,3.99
2022-12-08T10:20:40.520Z,4.07
2022-12-08T10:23:45.245Z,4.14
2022-12-08T10:26:47.132Z,4.23
2022-12-08T10:29:49.011Z,4.25
2022-12-08T10:32:53.086Z,4.22
2022-12-08T10:35:58.581Z,4.19
2022-12-08T10:39:01.408Z,4.15
2022-12-08T10:42:21.877Z,4.08
2022-12-08T10:45:32.559Z,4.02
2022-12-08T10:48:34.375Z,3.95
2022-12-08T10:51:42.861Z,3.88
2022-12-08T10:54:44.573Z,3.81
2022-12-08T10:57:46.618Z,3.75
2022-12-08T11:00:48.339Z,3.72
2022-12-08T11:03:52.887Z,3.69
2022-12-08T11:06:54.817Z,3.67
2022-12-08T11:09:58.290Z,3.65
2022-12-08T11:13:06.111Z,3.62
2022-12-08T11:16:08.664Z,3.59
2022-12-08T11:19:16.964Z,3.57
2022-12-08T11:22:24.223Z,3.56
2022-12-08T11:25:27.638Z,3.52
2022-12-08T11:28:29.497Z,3.51
2022-12-08T11:31:35.202Z,3.50
2022-12-08T11:34:49.655Z,3.49
2022-12-08T11:37:51.888Z,3.49
2022-12-08T11:40:57.747Z,3.46
2022-12-08T11:44:07.846Z,3.44
2022-12-08T11:47:21.229Z,3.44
2022-12-08T11:50:28.893Z,3.44
2022-12-08T11:53:38.092Z,3.44
2022-12-08T11:56:45.948Z,3.42
2022-12-08T11:59:50.608Z,3.41
2022-12-08T12:03:06.440Z,3.40
2022-12-08T12:06:53.757Z,3.39
2022-12-08T12:10:05.868Z,3.40
2022-12-08T12:13:48.775Z,3.37
2022-12-08T12:16:54.700Z,3.34
2022-12-08T12:19:59.641Z,3.33
2022-12-08T12:23:21.637Z,3.33
2022-12-08T12:26:28.859Z,3.35
2022-12-08T12:29:34.057Z,3.36
2022-12-08T12:32:45.745Z,3.36
2022-12-08T12:35:50.488Z,3.37
2022-12-08T12:39:06.285Z,3.37
2022-12-08T12:42:07.992Z,3.37
2022-12-08T12:45:12.536Z,3.36
2022-12-08T12:48:21.899Z,3.34
2022-12-08T12:51:39.114Z,3.30
2022-12-08T12:55:10.066Z,3.26
2022-12-08T12:58:42.636Z,3.23
2022-12-08T13:01:57.367Z,3.19
2022-12-08T13:04:59.140Z,3.14
2022-12-08T13:08:01.346Z,3.10
2022-12-08T13:11:05.960Z,3.03
2022-12-08T13:14:26.726Z,2.99
2022-12-08T13:17:31.192Z,2.93
2022-12-08T13:20:41.819Z,2.90
2022-12-08T13:23:47.090Z,2.87
2022-12-08T13:27:04.019Z,2.84
2022-12-08T13:30:40.235Z,2.79
2022-12-08T13:33:42.049Z,2.74
2022-12-08T13:36:47.755Z,2.72
2022-12-08T13:39:56.537Z,2.69
2022-12-08T13:43:17.004Z,2.68
2022-12-08T13:57:10.772Z,2.46
2022-12-08T14:00:20.098Z,2.41
2022-12-08T14:03:21.845Z,2.35
2022-12-08T14:06:39.370Z,2.34
2022-12-08T14:09:41.690Z,2.33
2022-12-08T14:12:47.086Z,2.31
2022-12-08T14:15:48.874Z,2.27
2022-12-08T14:18:51.383Z,2.24
2022-12-08T14:22:09.828Z,2.21
2022-12-08T14:25:15.781Z,2.19
2022-12-08T14:28:17.554Z,2.18
2022-12-08T14:31:19.127Z,2.17
2022-12-08T14:34:20.817Z,2.15
2022-12-08T14:37:23.191Z,2.13
2022-12-08T14:40:29.602Z,2.12
2022-12-08T14:43:32.704Z,2.10
2022-12-08T14:46:34.628Z,2.09
2022-12-08T14:49:39.085Z,2.07
2022-12-08T14:52:43.801Z,2.05
2022-12-08T14:55:47.815Z,2.02
2022-12-08T14:58:51.763Z,2.00
2022-12-08T15:02:10.472Z,1.98
2022-12-08T15:05:17.846Z,1.93
2022-12-08T15:08:19.684Z,1.92
2022-12-08T15:11:21.575Z,1.91
2022-12-08T15:14:34.975Z,1.89
2022-12-08T15:18:16.599Z,1.87
2022-12-08T15:21:18.423Z,1.85
2022-12-08T15:24:20.319Z,1.82
2022-12-08T15:27:24.306Z,1.79
2022-12-08T15:30:28.948Z,1.77
2022-12-08T15:33:30.834Z,1.75
2022-12-08T15:36:32.443Z,1.74
2022-12-08T15:39:38.178Z,1.70
2022-12-08T15:42:39.964Z,1.69
2022-12-08T15:45:50.513Z,1.68
2022-12-08T15:48:58.314Z,1.66
2022-12-08T15:52:10.825Z,1.64
2022-12-08T15:55:15.494Z,1.62
2022-12-08T16:01:45.491Z,1.59
2022-12-08T16:05:33.341Z,1.57
2022-12-08T16:08:44.691Z,1.54
2022-12-08T16:12:11.110Z,1.52
2022-12-08T16:18:37.177Z,1.47
2022-12-08T16:25:14.778Z,1.45
2022-12-08T16:31:41.849Z,1.37
2022-12-08T16:34:43.619Z,1.38
2022-12-08T16:37:45.428Z,1.39
2022-12-08T16:41:06.448Z,1.43
2022-12-08T16:44:08.057Z,1.46
2022-12-08T16:47:09.880Z,1.48
2022-12-08T16:50:14.440Z,1.48
2022-12-08T16:53:16.181Z,1.48
2022-12-08T16:56:18.481Z,1.47
2022-12-08T16:59:20.263Z,1.46
2022-12-08T17:02:22.770Z,1.47
2022-12-08T17:05:24.963Z,1.47
2022-12-08T17:08:27.359Z,1.47
2022-12-08T17:11:37.539Z,1.45
2022-12-08T17:14:43.222Z,1.44
2022-12-08T17:17:45.231Z,1.44
2022-12-08T17:20:46.928Z,1.44
2022-12-08T17:23:48.616Z,1.45
2022-12-08T17:26:51.860Z,1.45
2022-12-08T17:29:53.765Z,1.44
2022-12-08T17:32:55.407Z,1.41
2022-12-08T17:35:57.189Z,1.35
2022-12-08T17:38:59.298Z,1.14
2022-12-08T17:42:00.952Z,0.84
2022-12-08T17:45:02.711Z,0.69
2022-12-08T17:48:04.680Z,0.73
2022-12-08T17:51:08.939Z,0.82
2022-12-08T17:54:10.659Z,0.94
2022-12-08T17:57:12.276Z,1.02
2022-12-08T18:00:14.314Z,1.05
2022-12-08T18:03:16.640Z,1.05
2022-12-08T18:06:18.230Z,1.07
2022-12-08T18:09:20.245Z,1.10
2022-12-08T18:12:23.760Z,1.12
2022-12-08T18:15:26.201Z,0.99
2022-12-08T18:18:27.942Z,0.81
2022-12-08T18:21:29.448Z,0.74
2022-12-08T18:24:31.434Z,0.64
2022-12-08T18:27:37.282Z,0.55
2022-12-08T18:30:41.858Z,0.49
2022-12-08T18:33:44.956Z,0.38
2022-12-08T18:36:47.452Z,0.32
2022-12-08T18:39:49.134Z,0.29
2022-12-08T18:42:50.762Z,0.29
2022-12-08T18:46:00.893Z,0.32
2022-12-08T18:49:02.678Z,0.38
2022-12-08T18:52:04.914Z,0.51
2022-12-08T18:55:07.693Z,0.56
2022-12-08T18:58:11.100Z,0.62
2022-12-08T19:01:15.941Z,0.66
2022-12-08T19:04:28.262Z,0.56
2022-12-08T19:07:30.639Z,0.60
2022-12-08T19:10:32.241Z,0.65
2022-12-08T19:13:33.872Z,0.62
2022-12-08T19:16:35.907Z,0.53
2022-12-08T19:19:37.662Z,0.56
2022-12-08T19:22:39.224Z,0.58
2022-12-08T19:25:41.298Z,0.56
2022-12-08T19:28:43.105Z,0.46
2022-12-08T19:31:44.851Z,0.41
2022-12-08T19:34:46.937Z,0.40
2022-12-08T19:37:48.696Z,0.39
2022-12-08T19:41:09.028Z,0.40
2022-12-08T19:44:29.073Z,0.48
2022-12-08T19:47:30.866Z,0.59
2022-12-08T19:50:39.221Z,0.62
2022-12-08T19:53:47.360Z,0.64
2022-12-08T19:56:49.534Z,0.70
2022-12-08T19:59:56.154Z,0.73
2022-12-08T20:02:59.891Z,0.71
2022-12-08T20:06:01.954Z,0.68
2022-12-08T20:09:03.839Z,0.69
2022-12-08T20:12:06.191Z,0.71
2022-12-08T20:15:10.211Z,0.51
2022-12-08T20:18:13.236Z,0.24
2022-12-08T20:21:14.858Z,0.09
2022-12-08T20:24:17.146Z,-0.02
2022-12-08T20:27:19.023Z,0.01
2022-12-08T20:30:20.994Z,-0.03
2022-12-08T20:33:22.751Z,-0.04
2022-12-08T20:36:24.479Z,-0.06
2022-12-08T20:39:26.307Z,-0.10
2022-12-08T20:42:28.341Z,-0.14
2022-12-08T20:45:30.330Z,-0.16
2022-12-08T20:48:32.087Z,-0.14
2022-12-08T20:51:34.395Z,-0.13
2022-12-08T20:54:37.361Z,-0.14
2022-12-08T20:57:39.223Z,-0.15
2022-12-08T21:00:41.104Z,-0.14
2022-12-08T21:03:44.013Z,-0.15
2022-12-08T21:06:46.314Z,-0.15
2022-12-08T21:09:48.358Z,-0.14
2022-12-08T21:12:50.421Z,-0.07
2022-12-08T21:15:52.404Z,-0.01
2022-12-08T21:18:54.423Z,0.05
2022-12-08T21:21:56.379Z,0.08
2022-12-08T21:24:58.518Z,0.17
2022-12-08T21:28:00.228Z,0.20
2022-12-08T21:31:05.651Z,0.21
2022-12-08T21:34:07.626Z,0.22
2022-12-08T21:37:09.791Z,0.26
2022-12-08T21:40:12.252Z,0.29
2022-12-08T21:43:14.623Z,0.32
2022-12-08T21:46:17.431Z,0.33
2022-12-08T21:49:19.612Z,0.37
2022-12-08T21:52:21.455Z,0.41
2022-12-08T21:55:23.950Z,0.46
2022-12-08T21:58:26.398Z,0.52
2022-12-08T22:01:28.598Z,0.59
2022-12-08T22:04:30.663Z,0.63
2022-12-08T22:07:32.682Z,0.68
2022-12-08T22:10:34.600Z,0.71
2022-12-08T22:13:38.653Z,0.73
2022-12-08T22:16:40.550Z,0.74
2022-12-08T22:19:42.617Z,0.75
2022-12-08T22:22:44.699Z,0.76
2022-12-08T22:25:56.231Z,0.75
2022-12-08T22:28:58.056Z,0.75
2022-12-08T22:32:00.097Z,0.75
2022-12-08T22:35:01.956Z,0.76
2022-12-08T22:38:03.802Z,0.76
2022-12-08T22:41:06.532Z,0.76
2022-12-08T22:44:09.509Z,0.75
2022-12-08T22:47:11.575Z,0.75
2022-12-08T22:50:14.038Z,0.77
2022-12-08T22:53:15.744Z,0.78
2022-12-08T22:56:18.115Z,0.80
2022-12-08T22:59:19.990Z,0.81
2022-12-08T23:02:21.547Z,0.81
2022-12-08T23:05:23.407Z,0.82
2022-12-08T23:08:25.481Z,0.80
2022-12-08T23:11:30.789Z,0.79
2022-12-08T23:14:32.554Z,0.75
2022-12-08T23:17:34.753Z,0.72
2022-12-08T23:20:36.662Z,0.71
2022-12-08T23:23:38.562Z,0.70
2022-12-08T23:26:40.264Z,0.69
2022-12-08T23:29:42.008Z,0.67
2022-12-08T23:32:43.696Z,0.67
2022-12-08T23:35:45.913Z,0.65
2022-12-08T23:38:48.174Z,0.64
2022-12-08T23:41:50.581Z,0.65
2022-12-08T23:44:52.420Z,0.65
2022-12-08T23:47:54.614Z,0.64
2022-12-08T23:50:57.188Z,0.65
2022-12-08T23:53:58.841Z,0.66
2022-12-08T23:57:00.712Z,0.66
